createdAt,value
2023-04-23T00:02:40.174Z,11.92
2023-04-23T00:06:07.982Z,11.90
2023-04-23T00:09:32.386Z,11.90
2023-04-23T00:12:59.346Z,11.89
2023-04-23T00:16:27.096Z,11.86
2023-04-23T00:19:51.412Z,11.82
2023-04-23T00:23:19.260Z,11.79
2023-04-23T00:26:44.870Z,11.77
2023-04-23T00:30:12.910Z,11.77
2023-04-23T00:33:40.967Z,11.79
2023-04-23T00:36:49.901Z,11.78
2023-04-23T00:40:17.636Z,11.77
2023-04-23T00:43:45.294Z,11.77
2023-04-23T00:46:35.184Z,11.75
2023-04-23T00:49:45.110Z,11.74
2023-04-23T00:53:12.917Z,11.71
2023-04-23T00:56:21.791Z,11.70
2023-04-23T00:59:30.812Z,11.67
2023-04-23T01:02:46.553Z,11.69
2023-04-23T01:06:14.311Z,11.77
2023-04-23T01:09:06.514Z,11.82
2023-04-23T01:12:31.076Z,11.82
2023-04-23T01:15:56.958Z,11.85
2023-04-23T01:19:21.864Z,11.83
2023-04-23T01:22:45.265Z,11.78
2023-04-23T01:26:12.992Z,11.73
2023-04-23T01:29:41.041Z,11.68
2023-04-23T01:33:05.192Z,11.58
2023-04-23T01:36:02.685Z,11.53
2023-04-23T01:38:54.411Z,11.51
2023-04-23T01:42:06.211Z,11.46
2023-04-23T01:45:34.272Z,11.36
2023-04-23T01:48:28.431Z,11.30
2023-04-23T01:51:20.514Z,11.26
2023-04-23T01:54:19.132Z,11.24
2023-04-23T01:57:21.857Z,11.22
2023-04-23T02:00:12.829Z,11.21
2023-04-23T02:03:12.520Z,11.22
2023-04-23T02:06:40.203Z,11.20
2023-04-23T02:09:52.919Z,11.22
2023-04-23T02:12:43.967Z,11.24
2023-04-23T02:15:59.299Z,11.25
2023-04-23T02:19:04.985Z,11.25
2023-04-23T02:22:13.807Z,11.25
2023-04-23T02:25:23.059Z,11.25
2023-04-23T02:28:35.015Z,11.25
2023-04-23T02:31:25.729Z,11.27
2023-04-23T02:34:34.231Z,11.27
2023-04-23T02:37:40.877Z,11.27
2023-04-23T02:40:56.497Z,11.27
2023-04-23T02:44:11.984Z,11.27
2023-04-23T02:47:07.866Z,11.27
2023-04-23T02:50:17.928Z,11.28
2023-04-23T02:53:45.813Z,11.32
2023-04-23T02:56:51.811Z,11.35
2023-04-23T02:59:40.860Z,11.34
2023-04-23T03:02:55.973Z,11.28
2023-04-23T03:06:04.820Z,11.18
2023-04-23T03:08:56.502Z,11.11
2023-04-23T03:12:20.116Z,10.99
2023-04-23T03:15:29.828Z,10.93
2023-04-23T03:18:57.791Z,10.87
2023-04-23T03:21:50.004Z,10.84
2023-04-23T03:24:48.213Z,10.81
2023-04-23T03:28:12.398Z,10.80
2023-04-23T03:31:40.515Z,10.78
2023-04-23T03:34:49.441Z,10.76
2023-04-23T03:37:39.011Z,10.72
2023-04-23T03:41:06.971Z,10.72
2023-04-23T03:44:17.007Z,10.70
2023-04-23T03:47:32.891Z,10.70
2023-04-23T03:50:56.324Z,10.65
2023-04-23T03:54:23.983Z,10.67
2023-04-23T03:57:27.529Z,10.67
2023-04-23T04:00:45.061Z,10.65
2023-04-23T04:03:53.377Z,10.64
2023-04-23T04:06:41.981Z,10.66
2023-04-23T04:09:46.743Z,10.69
2023-04-23T04:13:14.582Z,10.73
2023-04-23T04:16:42.218Z,10.71
2023-04-23T04:20:09.931Z,10.73
2023-04-23T04:23:19.052Z,10.78
2023-04-23T04:26:46.861Z,10.83
2023-04-23T04:30:03.540Z,10.91
2023-04-23T04:32:52.743Z,10.97
2023-04-23T04:35:56.626Z,11.03
2023-04-23T04:39:08.508Z,11.05
2023-04-23T04:41:59.080Z,11.09
2023-04-23T04:45:06.833Z,11.16
2023-04-23T04:48:26.833Z,11.24
2023-04-23T04:51:36.721Z,11.27
2023-04-23T04:54:38.215Z,11.33
2023-04-23T04:58:06.117Z,11.38
2023-04-23T05:01:21.825Z,11.39
2023-04-23T05:04:37.489Z,11.41
2023-04-23T05:07:47.486Z,11.43
2023-04-23T05:10:56.365Z,11.45
2023-04-23T05:13:35.012Z,11.50
2023-04-23T05:16:48.178Z,11.55
2023-04-23T05:19:57.160Z,11.61
2023-04-23T05:23:25.229Z,11.69
2023-04-23T05:26:53.118Z,11.78
2023-04-23T05:30:21.022Z,11.91
2023-04-23T05:33:10.931Z,12.05
2023-04-23T05:36:01.903Z,12.19
2023-04-23T05:39:13.639Z,12.35
2023-04-23T05:42:41.606Z,12.56
2023-04-23T05:46:09.461Z,12.73
2023-04-23T05:48:58.562Z,12.89
2023-04-23T05:52:22.260Z,13.08
2023-04-23T05:55:30.817Z,13.26
2023-04-23T05:58:54.406Z,13.51
2023-04-23T06:01:22.946Z,13.70
2023-04-23T06:04:34.889Z,13.98
2023-04-23T06:07:58.391Z,14.27
2023-04-23T06:11:06.500Z,14.45
2023-04-23T06:14:34.358Z,14.70
2023-04-23T06:17:43.500Z,14.96
2023-04-23T06:21:11.432Z,15.23
2023-04-23T06:24:35.158Z,15.46
2023-04-23T06:27:07.744Z,15.62
2023-04-23T06:30:19.443Z,15.77
2023-04-23T06:33:28.068Z,15.79
2023-04-23T06:36:31.434Z,15.93
2023-04-23T06:39:39.346Z,16.10
2023-04-23T06:42:28.644Z,16.31
2023-04-23T06:45:57.012Z,16.47
2023-04-23T06:49:02.955Z,16.33
2023-04-23T06:52:11.978Z,16.53
2023-04-23T06:55:20.537Z,16.64
2023-04-23T06:58:48.242Z,16.65
2023-04-23T07:02:16.217Z,16.64
2023-04-23T07:05:47.323Z,16.71
2023-04-23T07:09:03.047Z,16.75
2023-04-23T07:12:17.118Z,16.77
2023-04-23T07:15:02.422Z,16.89
2023-04-23T07:18:30.202Z,17.06
2023-04-23T07:21:38.162Z,17.25
2023-04-23T07:24:29.115Z,17.34
2023-04-23T07:27:17.912Z,17.34
2023-04-23T07:30:27.654Z,17.50
2023-04-23T07:33:17.097Z,17.56
2023-04-23T07:36:25.845Z,17.66
2023-04-23T07:39:38.004Z,17.69
2023-04-23T07:43:05.785Z,17.57
2023-04-23T07:46:34.040Z,17.58
2023-04-23T07:49:43.168Z,17.64
2023-04-23T07:53:10.826Z,17.60
2023-04-23T07:56:39.247Z,17.66
2023-04-23T08:00:06.862Z,17.62
2023-04-23T08:03:35.211Z,17.68
2023-04-23T08:06:03.422Z,17.79
2023-04-23T08:09:13.118Z,17.83
2023-04-23T08:11:43.808Z,17.89
2023-04-23T08:14:32.638Z,18.03
2023-04-23T08:17:40.589Z,17.91
2023-04-23T08:20:49.370Z,18.09
2023-04-23T08:23:37.376Z,18.23
2023-04-23T08:26:45.484Z,18.33
2023-04-23T08:29:16.151Z,18.30
2023-04-23T08:31:46.913Z,18.25
2023-04-23T08:34:35.974Z,18.32
2023-04-23T08:37:30.248Z,18.34
2023-04-23T08:40:30.599Z,18.46
2023-04-23T08:43:58.809Z,18.24
2023-04-23T08:46:51.864Z,18.16
2023-04-23T08:49:59.822Z,18.08
2023-04-23T08:52:51.664Z,18.12
2023-04-23T08:55:40.331Z,18.21
2023-04-23T08:58:28.667Z,18.22
2023-04-23T09:00:57.524Z,18.35
2023-04-23T09:03:53.613Z,18.53
2023-04-23T09:07:27.053Z,18.73
2023-04-23T09:10:40.935Z,19.02
2023-04-23T09:14:06.087Z,19.36
2023-04-23T09:17:42.618Z,19.56
2023-04-23T09:20:34.650Z,19.42
2023-04-23T09:23:35.013Z,19.55
2023-04-23T09:27:06.668Z,19.73
2023-04-23T09:30:04.955Z,19.90
2023-04-23T09:33:13.332Z,20.10
2023-04-23T09:36:41.506Z,20.42
2023-04-23T09:39:49.835Z,20.56
2023-04-23T09:43:14.761Z,20.63
2023-04-23T09:46:34.712Z,20.96
2023-04-23T09:49:02.998Z,21.11
2023-04-23T09:52:12.257Z,21.16
2023-04-23T09:55:22.776Z,21.30
2023-04-23T09:57:54.605Z,21.52
2023-04-23T10:01:03.819Z,21.55
2023-04-23T10:03:47.390Z,21.61
2023-04-23T10:06:57.999Z,21.34
2023-04-23T10:10:19.900Z,21.11
2023-04-23T10:13:29.164Z,21.00
2023-04-23T10:16:46.471Z,20.85
2023-04-23T10:20:07.757Z,21.04
2023-04-23T10:23:35.408Z,21.00
2023-04-23T10:27:03.458Z,21.40
2023-04-23T10:30:31.812Z,21.76
2023-04-23T10:33:49.431Z,21.88
2023-04-23T10:36:35.719Z,22.13
2023-04-23T10:39:06.351Z,22.44
2023-04-23T10:42:17.906Z,22.51
2023-04-23T10:44:59.437Z,22.78
2023-04-23T10:47:45.110Z,22.83
2023-04-23T10:51:28.437Z,23.18
2023-04-23T10:54:09.493Z,23.27
2023-04-23T10:56:59.440Z,23.57
2023-04-23T10:59:28.393Z,23.78
2023-04-23T11:02:36.921Z,23.87
2023-04-23T11:06:04.683Z,23.91
2023-04-23T11:08:53.200Z,23.91
2023-04-23T11:11:42.049Z,23.97
2023-04-23T11:14:11.021Z,23.99
2023-04-23T11:16:39.711Z,23.92
2023-04-23T11:19:28.032Z,24.14
2023-04-23T11:21:57.585Z,24.05
2023-04-23T11:24:25.565Z,23.66
2023-04-23T11:26:54.658Z,23.44
2023-04-23T11:29:23.671Z,23.33
2023-04-23T11:32:03.694Z,23.40
2023-04-23T11:34:33.698Z,23.66
2023-04-23T11:37:02.412Z,23.54
2023-04-23T11:39:32.453Z,23.33
2023-04-23T11:42:01.075Z,23.14
2023-04-23T11:44:29.996Z,23.16
2023-04-23T11:47:18.647Z,23.13
2023-04-23T11:49:47.371Z,23.08
2023-04-23T11:52:16.419Z,23.41
2023-04-23T11:55:01.008Z,23.47
2023-04-23T11:57:29.099Z,23.58
2023-04-23T11:59:57.525Z,23.59
2023-04-23T12:02:26.765Z,23.48
2023-04-23T12:04:56.274Z,23.56
2023-04-23T12:07:26.874Z,23.85
2023-04-23T12:09:56.627Z,24.05
2023-04-23T12:12:24.914Z,24.36
2023-04-23T12:14:58.299Z,24.60
2023-04-23T12:18:14.450Z,24.58
2023-04-23T12:20:46.299Z,24.64
2023-04-23T12:23:14.167Z,24.15
2023-04-23T12:25:43.156Z,23.88
2023-04-23T12:28:12.117Z,23.85
2023-04-23T12:30:41.092Z,23.91
2023-04-23T12:33:24.189Z,23.48
2023-04-23T12:35:56.672Z,23.66
2023-04-23T12:38:25.344Z,23.70
2023-04-23T12:41:13.967Z,24.13
2023-04-23T12:43:50.916Z,24.64
2023-04-23T12:46:19.132Z,24.77
2023-04-23T12:48:48.497Z,25.11
2023-04-23T12:51:17.765Z,24.92
2023-04-23T12:53:46.953Z,24.79
2023-04-23T12:56:35.137Z,24.74
2023-04-23T12:59:04.502Z,24.54
2023-04-23T13:02:01.485Z,24.93
2023-04-23T13:04:52.810Z,24.99
2023-04-23T13:07:41.024Z,25.17
2023-04-23T13:10:28.920Z,25.52
2023-04-23T13:13:18.057Z,26.34
2023-04-23T13:16:15.560Z,26.96
2023-04-23T13:19:04.392Z,27.56
2023-04-23T13:21:54.153Z,28.05
2023-04-23T13:24:24.968Z,27.45
2023-04-23T13:26:56.756Z,27.01
2023-04-23T13:29:40.986Z,26.40
2023-04-23T13:32:09.933Z,26.45
2023-04-23T13:34:38.440Z,26.33
2023-04-23T13:37:28.202Z,26.08
2023-04-23T13:40:36.320Z,25.46
2023-04-23T13:43:05.110Z,25.48
2023-04-23T13:45:53.755Z,26.14
2023-04-23T13:49:01.849Z,26.36
2023-04-23T13:51:47.560Z,26.58
2023-04-23T13:54:17.046Z,26.41
2023-04-23T13:57:05.300Z,26.52
2023-04-23T13:59:36.052Z,26.71
2023-04-23T14:02:08.823Z,26.33
2023-04-23T14:04:38.711Z,26.00
2023-04-23T14:08:06.755Z,25.70
2023-04-23T14:11:15.179Z,25.73
2023-04-23T14:14:43.195Z,25.45
2023-04-23T14:17:47.573Z,25.00
2023-04-23T14:20:59.500Z,24.30
2023-04-23T14:23:48.062Z,24.70
2023-04-23T14:26:19.365Z,25.54
2023-04-23T14:29:32.782Z,26.63
2023-04-23T14:32:21.143Z,27.39
2023-04-23T14:35:09.757Z,28.26
2023-04-23T14:37:38.113Z,29.16
2023-04-23T14:40:26.419Z,29.35
2023-04-23T14:42:57.011Z,29.60
2023-04-23T14:45:28.317Z,30.31
2023-04-23T14:47:56.361Z,30.80
2023-04-23T14:50:24.322Z,31.13
2023-04-23T14:52:52.283Z,31.44
2023-04-23T14:55:20.167Z,31.91
2023-04-23T14:57:48.548Z,31.66
2023-04-23T15:00:16.480Z,31.67
2023-04-23T15:02:45.279Z,32.19
2023-04-23T15:05:13.260Z,32.05
2023-04-23T15:07:41.818Z,31.88
2023-04-23T15:10:11.126Z,32.06
2023-04-23T15:12:39.685Z,31.90
2023-04-23T15:15:08.167Z,31.92
2023-04-23T15:17:36.582Z,32.23
2023-04-23T15:20:06.153Z,32.54
2023-04-23T15:22:33.902Z,32.23
2023-04-23T15:25:01.715Z,32.78
2023-04-23T15:27:29.661Z,33.13
2023-04-23T15:29:57.983Z,32.69
2023-04-23T15:32:29.187Z,32.06
2023-04-23T15:35:19.679Z,32.47
2023-04-23T15:37:48.335Z,32.61
2023-04-23T15:40:16.280Z,31.59
2023-04-23T15:42:45.069Z,32.13
2023-04-23T15:45:13.580Z,31.55
2023-04-23T15:47:43.226Z,31.67
2023-04-23T15:50:11.365Z,31.57
2023-04-23T15:52:39.380Z,32.26
2023-04-23T15:55:08.577Z,32.35
2023-04-23T15:57:37.764Z,32.44
2023-04-23T16:00:06.011Z,32.26
2023-04-23T16:02:40.682Z,31.68
2023-04-23T16:05:09.621Z,31.74
2023-04-23T16:07:38.196Z,31.24
2023-04-23T16:10:27.485Z,31.17
2023-04-23T16:12:57.975Z,31.75
2023-04-23T16:15:26.125Z,31.71
2023-04-23T16:17:54.249Z,31.26
2023-04-23T16:20:23.461Z,31.24
2023-04-23T16:22:52.663Z,30.73
2023-04-23T16:25:20.683Z,30.53
2023-04-23T16:27:48.681Z,31.13
2023-04-23T16:30:17.617Z,31.33
2023-04-23T16:32:47.603Z,30.94
2023-04-23T16:35:15.479Z,30.55
2023-04-23T16:37:44.577Z,30.54
2023-04-23T16:40:16.165Z,30.59
2023-04-23T16:43:20.461Z,30.31
2023-04-23T16:45:48.523Z,29.77
2023-04-23T16:48:20.262Z,29.75
2023-04-23T16:50:49.322Z,29.38
2023-04-23T16:53:17.697Z,28.68
2023-04-23T16:55:46.740Z,28.23
2023-04-23T16:59:14.596Z,27.54
2023-04-23T17:02:22.501Z,26.61
2023-04-23T17:05:50.267Z,25.64
2023-04-23T17:09:18.117Z,24.76
2023-04-23T17:12:45.729Z,24.09
2023-04-23T17:16:13.641Z,23.33
2023-04-23T17:19:01.300Z,22.95
2023-04-23T17:22:30.838Z,22.52
2023-04-23T17:25:58.921Z,22.03
2023-04-23T17:29:07.819Z,21.63
2023-04-23T17:31:37.694Z,21.39
2023-04-23T17:34:44.589Z,21.09
2023-04-23T17:38:12.354Z,20.88
2023-04-23T17:40:42.366Z,20.67
2023-04-23T17:44:10.700Z,20.42
2023-04-23T17:47:38.767Z,20.22
2023-04-23T17:50:47.807Z,20.04
2023-04-23T17:53:16.784Z,19.91
2023-04-23T17:56:25.040Z,19.73
2023-04-23T17:59:18.813Z,19.56
2023-04-23T18:02:07.953Z,19.42
2023-04-23T18:05:35.966Z,19.23
2023-04-23T18:08:04.574Z,19.12
2023-04-23T18:10:57.267Z,19.00
2023-04-23T18:14:25.211Z,18.84
2023-04-23T18:17:30.027Z,18.69
2023-04-23T18:20:57.948Z,18.52
2023-04-23T18:24:25.918Z,18.36
2023-04-23T18:27:34.396Z,18.19
2023-04-23T18:31:02.285Z,18.00
2023-04-23T18:33:52.170Z,17.85
2023-04-23T18:37:02.238Z,17.65
2023-04-23T18:40:13.993Z,17.50
2023-04-23T18:43:41.978Z,17.30
2023-04-23T18:47:10.007Z,17.09
2023-04-23T18:50:25.344Z,16.95
2023-04-23T18:53:20.327Z,16.78
2023-04-23T18:56:28.466Z,16.62
2023-04-23T18:59:56.445Z,16.46
2023-04-23T19:02:44.509Z,16.36
2023-04-23T19:06:12.284Z,16.24
2023-04-23T19:09:20.235Z,16.15
2023-04-23T19:12:29.298Z,16.08
2023-04-23T19:15:18.629Z,16.02
2023-04-23T19:18:46.335Z,15.98
2023-04-23T19:21:14.188Z,15.93
2023-04-23T19:24:02.963Z,15.88
2023-04-23T19:26:50.785Z,15.83
2023-04-23T19:30:07.431Z,15.78
2023-04-23T19:33:22.916Z,15.75
2023-04-23T19:36:30.816Z,15.71
2023-04-23T19:39:38.797Z,15.66
2023-04-23T19:43:06.800Z,15.60
2023-04-23T19:45:41.021Z,15.56
2023-04-23T19:49:09.172Z,15.46
2023-04-23T19:52:17.047Z,15.42
2023-04-23T19:54:45.908Z,15.39
2023-04-23T19:57:29.466Z,15.36
2023-04-23T19:59:58.512Z,15.33
2023-04-23T20:02:30.305Z,15.31
2023-04-23T20:05:19.147Z,15.31
2023-04-23T20:08:07.481Z,15.29
2023-04-23T20:11:15.235Z,15.22
2023-04-23T20:14:04.406Z,15.18
2023-04-23T20:17:32.278Z,15.15
2023-04-23T20:20:22.409Z,15.12
2023-04-23T20:23:31.414Z,15.08
2023-04-23T20:26:59.419Z,15.02
2023-04-23T20:30:27.236Z,14.96
2023-04-23T20:33:46.939Z,14.90
2023-04-23T20:36:35.786Z,14.86
2023-04-23T20:40:03.734Z,14.81
2023-04-23T20:43:12.996Z,14.75
2023-04-23T20:46:40.929Z,14.68
2023-04-23T20:50:08.833Z,14.62
2023-04-23T20:53:17.545Z,14.56
2023-04-23T20:56:07.774Z,14.54
2023-04-23T20:58:56.788Z,14.52
2023-04-23T21:02:04.596Z,14.49
2023-04-23T21:05:32.563Z,14.42
2023-04-23T21:08:25.365Z,14.37
2023-04-23T21:11:24.565Z,14.31
2023-04-23T21:14:53.317Z,14.21
2023-04-23T21:18:02.928Z,14.16
2023-04-23T21:25:02.861Z,14.06
2023-04-23T21:28:30.816Z,14.02
2023-04-23T21:31:39.621Z,13.95
2023-04-23T21:35:04.509Z,13.88
2023-04-23T21:38:32.362Z,13.86
2023-04-23T21:41:44.802Z,13.82
2023-04-23T21:45:12.552Z,13.77
2023-04-23T21:48:42.000Z,13.70
2023-04-23T21:52:09.917Z,13.67
2023-04-23T21:55:38.357Z,13.63
2023-04-23T21:59:05.999Z,13.59
2023-04-23T22:01:54.874Z,13.57
2023-04-23T22:05:23.036Z,13.53
2023-04-23T22:08:50.844Z,13.48
2023-04-23T22:12:18.548Z,13.40
2023-04-23T22:15:46.459Z,13.32
2023-04-23T22:19:14.507Z,13.20
2023-04-23T22:22:42.299Z,13.09
2023-04-23T22:26:11.307Z,12.97
2023-04-23T22:29:40.275Z,12.88
2023-04-23T22:33:08.033Z,12.81
2023-04-23T22:36:35.818Z,12.71
2023-04-23T22:40:03.770Z,12.62
2023-04-23T22:43:31.524Z,12.57
2023-04-23T22:47:01.565Z,12.50
2023-04-23T22:49:51.404Z,12.48
2023-04-23T22:52:59.544Z,12.46
2023-04-23T22:56:27.559Z,12.45
2023-04-23T22:59:36.152Z,12.46
2023-04-23T23:03:04.203Z,12.47
2023-04-23T23:06:32.030Z,12.46
2023-04-23T23:09:39.833Z,12.44
2023-04-23T23:13:07.637Z,12.42
2023-04-23T23:16:35.474Z,12.38
2023-04-23T23:20:03.457Z,12.33
2023-04-23T23:23:31.226Z,12.29
2023-04-23T23:26:59.192Z,12.25
2023-04-23T23:30:11.519Z,12.21
2023-04-23T23:33:20.507Z,12.17
2023-04-23T23:36:48.506Z,12.12
2023-04-23T23:40:16.479Z,12.06
2023-04-23T23:43:44.353Z,12.02
2023-04-23T23:47:12.315Z,11.99
2023-04-23T23:50:28.064Z,11.96
2023-04-23T23:53:56.001Z,11.92
2023-04-23T23:57:25.062Z,11.89
